Time;durP1;ratioP1;P1;durP2;ratioP2;P2;SDS_P1;SDS_P2;PMS_P1;PMS_P2;Temp;Humidity;BMP_temperature;BMP_pressure;BME280_temperature;BME280_humidity;BME280_pressure;Samples;Min_cycle;Max_cycle;Signal;HPM_P1;HPM_P2
2022/04/01 00:00:33;;;;;;;4.68;2.97;;;1.10;95.40;;;;;;2073188;28;20038;-87
2022/04/01 00:01:34;;;;;;;5.82;3.10;;;1.00;95.40;;;;;;2063901;28;20038;-88
2022/04/01 00:02:36;;;;;;;5.40;3.30;;;1.00;95.40;;;;;;2048669;29;20030;-89
2022/04/01 00:03:37;;;;;;;5.53;2.85;;;1.00;95.40;;;;;;2056914;28;20507;-88
2022/04/01 00:04:39;;;;;;;5.60;3.22;;;1.00;95.40;;;;;;2075093;28;20022;-87
2022/04/01 00:05:40;;;;;;;4.90;2.95;;;1.00;95.50;;;;;;2072592;28;20053;-89
2022/04/01 00:06:41;;;;;;;5.47;3.10;;;1.00;95.50;;;;;;2071798;28;20076;-88
2022/04/01 00:07:41;;;;;;;5.78;3.03;;;1.00;95.50;;;;;;2072805;28;20069;-88
2022/04/01 00:08:42;;;;;;;5.45;3.28;;;1.00;95.40;;;;;;2072592;28;20480;-89
2022/04/01 00:09:43;;;;;;;6.20;3.60;;;1.00;95.50;;;;;;2058952;28;20034;-89
2022/04/01 00:10:43;;;;;;;5.97;3.20;;;1.00;95.50;;;;;;2061628;28;20034;-88
2022/04/01 00:11:44;;;;;;;5.25;3.38;;;1.00;95.50;;;;;;2072194;28;20498;-89
2022/04/01 00:12:46;;;;;;;5.53;3.47;;;1.00;95.50;;;;;;2071064;28;20112;-88
2022/04/01 00:13:46;;;;;;;4.13;2.63;;;1.00;95.50;;;;;;2072128;28;20511;-89
2022/04/01 00:14:47;;;;;;;5.00;3.08;;;1.00;95.50;;;;;;2064361;28;20058;-89
2022/04/01 00:15:48;;;;;;;5.05;3.05;;;1.00;95.50;;;;;;2049256;28;20100;-89
2022/04/01 00:16:48;;;;;;;5.50;3.20;;;1.00;95.50;;;;;;2057024;28;20034;-88
2022/04/01 00:17:49;;;;;;;4.30;2.65;;;1.00;95.50;;;;;;2070469;28;20396;-88
2022/04/01 00:18:49;;;;;;;5.00;3.08;;;1.00;95.50;;;;;;2073114;28;20026;-89
2022/04/01 00:19:50;;;;;;;4.78;2.72;;;1.00;95.50;;;;;;2072005;28;20165;-90
2022/04/01 00:20:51;;;;;;;5.65;3.28;;;1.00;95.50;;;;;;2067041;28;20030;-89
2022/04/01 00:21:53;;;;;;;5.78;2.92;;;1.00;95.50;;;;;;2072509;28;20096;-90
2022/04/01 00:22:54;;;;;;;5.15;3.10;;;1.00;95.50;;;;;;2071945;28;20041;-89
2022/04/01 00:23:55;;;;;;;5.10;3.03;;;1.00;95.50;;;;;;2073261;28;20026;-90
2022/04/01 00:24:56;;;;;;;4.97;3.00;;;1.00;95.50;;;;;;2072456;28;20026;-91
2022/04/01 00:25:57;;;;;;;4.82;3.15;;;1.00;95.50;;;;;;2071775;28;20042;-89
2022/04/01 00:26:58;;;;;;;5.97;3.08;;;1.00;95.50;;;;;;2067488;28;20030;-89
2022/04/01 00:27:59;;;;;;;5.15;3.35;;;1.00;95.50;;;;;;2069537;28;20416;-90
2022/04/01 00:28:59;;;;;;;5.20;3.28;;;1.00;95.50;;;;;;2072577;28;20054;-89
2022/04/01 00:30:01;;;;;;;4.88;3.15;;;1.00;95.50;;;;;;2061426;28;20031;-90
2022/04/01 00:31:01;;;;;;;4.80;2.80;;;1.00;95.50;;;;;;2069821;28;20026;-90
2022/04/01 00:32:02;;;;;;;6.18;3.55;;;1.00;95.60;;;;;;2068578;28;20128;-90
2022/04/01 00:33:05;;;;;;;4.45;2.97;;;1.00;95.60;;;;;;2073036;28;20030;-90
2022/04/01 00:34:15;;;;;;;5.22;2.90;;;1.00;95.60;;;;;;2071239;28;20026;-90
2022/04/01 00:35:16;;;;;;;3.92;2.90;;;1.00;95.60;;;;;;2072292;28;20083;-90
2022/04/01 00:36:16;;;;;;;4.60;2.70;;;1.00;95.60;;;;;;2060262;28;20475;-91
2022/04/01 00:37:17;;;;;;;6.15;3.20;;;1.00;95.60;;;;;;2069267;28;20187;-89
2022/04/01 00:38:19;;;;;;;4.65;2.92;;;1.00;95.60;;;;;;2065981;28;20077;-90
2022/04/01 00:39:22;;;;;;;4.60;3.00;;;1.00;95.50;;;;;;2057904;28;20045;-89
2022/04/01 00:40:22;;;;;;;5.20;3.17;;;1.00;95.50;;;;;;2056406;28;20023;-90
2022/04/01 00:41:23;;;;;;;6.13;3.70;;;1.00;95.80;;;;;;2048301;28;20513;-90
2022/04/01 00:42:25;;;;;;;5.00;3.22;;;1.00;95.50;;;;;;2056704;28;20501;-90
2022/04/01 00:43:27;;;;;;;5.80;3.00;;;1.00;95.50;;;;;;2074844;28;20030;-90
2022/04/01 00:44:31;;;;;;;5.15;2.90;;;1.00;95.50;;;;;;2074176;28;20042;-91
2022/04/01 00:45:32;;;;;;;5.50;3.38;;;1.00;95.50;;;;;;2074930;28;20022;-91
2022/04/01 00:46:32;;;;;;;5.68;3.30;;;1.00;95.80;;;;;;2078811;28;20069;-91
2022/04/01 00:47:33;;;;;;;5.22;3.42;;;1.00;95.50;;;;;;2073837;28;20029;-90
2022/04/01 00:48:34;;;;;;;5.55;3.30;;;1.00;95.50;;;;;;2066822;28;20404;-91
2022/04/01 00:49:35;;;;;;;4.05;2.90;;;1.00;95.50;;;;;;2072009;28;20503;-90
2022/04/01 00:50:36;;;;;;;6.53;3.35;;;1.00;95.50;;;;;;2073193;28;20721;-89
2022/04/01 00:51:37;;;;;;;4.30;2.88;;;0.90;95.50;;;;;;2074197;28;20025;-90
2022/04/01 00:52:38;;;;;;;5.03;3.25;;;1.00;95.50;;;;;;2065318;28;20022;-90
2022/04/01 00:53:39;;;;;;;4.80;3.15;;;1.00;95.50;;;;;;2067082;28;20105;-90
2022/04/01 00:54:40;;;;;;;4.88;3.00;;;0.90;95.50;;;;;;2069664;28;20022;-91
2022/04/01 00:55:41;;;;;;;5.45;3.22;;;0.90;95.50;;;;;;2056379;28;20027;-90
2022/04/01 00:56:42;;;;;;;4.80;2.90;;;1.00;95.50;;;;;;2061686;28;20306;-90
2022/04/01 00:57:43;;;;;;;4.88;3.00;;;1.00;95.50;;;;;;2065471;28;20037;-90
2022/04/01 00:58:43;;;;;;;4.85;3.28;;;1.00;95.50;;;;;;2058181;28;20031;-90
2022/04/01 00:59:45;;;;;;;5.07;3.20;;;1.00;95.50;;;;;;2041843;28;20087;-91
2022/04/01 01:00:45;;;;;;;4.82;2.95;;;0.90;95.50;;;;;;2055179;28;20047;-90
2022/04/01 01:01:48;;;;;;;5.60;3.70;;;0.90;95.50;;;;;;2070101;28;20033;-91
2022/04/01 01:02:48;;;;;;;5.40;3.35;;;0.90;95.50;;;;;;2069116;28;20029;-92
2022/04/01 01:03:49;;;;;;;5.95;3.45;;;0.90;95.50;;;;;;2071157;28;20512;-92
2022/04/01 01:04:50;;;;;;;5.63;3.40;;;0.90;95.50;;;;;;2074295;28;20065;-91
2022/04/01 01:05:51;;;;;;;5.38;3.38;;;0.90;95.50;;;;;;2073110;28;20042;-91
2022/04/01 01:06:54;;;;;;;7.63;3.95;;;0.90;95.60;;;;;;2074058;28;20066;-90
2022/04/01 01:07:55;;;;;;;7.40;3.85;;;0.90;95.60;;;;;;2073399;28;20030;-92
2022/04/01 01:08:56;;;;;;;5.85;3.75;;;0.90;95.60;;;;;;2065601;28;20038;-90
2022/04/01 01:09:57;;;;;;;6.35;3.83;;;0.90;95.60;;;;;;2074808;28;20038;-91
2022/04/01 01:11:01;;;;;;;5.72;3.50;;;0.90;95.60;;;;;;2062491;28;20080;-91
2022/04/01 01:12:03;;;;;;;5.85;4.00;;;0.80;95.60;;;;;;2057550;28;20026;-92
2022/04/01 01:13:03;;;;;;;5.35;3.78;;;0.90;95.60;;;;;;2049849;28;20027;-89
2022/04/01 01:14:09;;;;;;;5.95;3.90;;;0.80;95.60;;;;;;2056331;28;20129;-90
2022/04/01 01:15:14;;;;;;;6.22;4.10;;;0.80;95.60;;;;;;2076869;28;20045;-91
2022/04/01 01:16:15;;;;;;;6.47;4.05;;;0.80;95.60;;;;;;2074377;28;20041;-92
2022/04/01 01:17:16;;;;;;;7.78;4.28;;;0.80;95.70;;;;;;2074190;28;20555;-90
2022/04/01 01:18:17;;;;;;;5.32;4.10;;;0.80;95.70;;;;;;2074144;28;20037;-91
2022/04/01 01:19:18;;;;;;;5.57;4.18;;;0.80;95.70;;;;;;2074590;28;20026;-90
2022/04/01 01:20:20;;;;;;;6.63;4.43;;;0.80;95.70;;;;;;2074006;28;20045;-89
2022/04/01 01:21:20;;;;;;;6.25;4.70;;;0.80;95.70;;;;;;2065183;28;20121;-91
2022/04/01 01:22:21;;;;;;;6.38;4.50;;;0.80;95.80;;;;;;2065624;28;20527;-91
2022/04/01 01:23:31;;;;;;;6.25;4.40;;;0.80;95.80;;;;;;2060518;28;20125;-91
2022/04/01 01:24:33;;;;;;;6.30;4.53;;;0.80;95.90;;;;;;2071888;28;20465;-90
2022/04/01 01:25:36;;;;;;;6.90;4.95;;;0.80;95.90;;;;;;2077792;28;20109;-88
2022/04/01 01:26:37;;;;;;;6.65;4.32;;;0.70;95.90;;;;;;2073982;28;20053;-91
2022/04/01 01:27:39;;;;;;;6.45;4.65;;;0.70;96.20;;;;;;2065498;28;20031;-91
2022/04/01 01:28:40;;;;;;;6.68;5.00;;;0.70;95.90;;;;;;2049073;28;20042;-91
2022/04/01 01:29:42;;;;;;;7.25;5.18;;;0.70;95.90;;;;;;2049838;28;20418;-90
2022/04/01 01:30:43;;;;;;;6.57;5.05;;;0.70;95.90;;;;;;2048295;28;20141;-89
2022/04/01 01:31:43;;;;;;;9.95;4.95;;;0.70;96.00;;;;;;2048896;28;20507;-90
2022/04/01 01:32:44;;;;;;;6.95;4.78;;;0.70;96.00;;;;;;2057349;28;20174;-90
2022/04/01 01:33:44;;;;;;;6.03;4.43;;;0.70;96.00;;;;;;2064515;28;20073;-90
2022/04/01 01:34:45;;;;;;;6.65;4.55;;;0.70;96.00;;;;;;2054134;28;20484;-90
2022/04/01 01:35:46;;;;;;;7.85;4.93;;;0.70;96.00;;;;;;2051252;28;20046;-88
2022/04/01 01:36:48;;;;;;;6.82;4.55;;;0.70;96.00;;;;;;2049552;28;20099;-89
2022/04/01 01:37:48;;;;;;;6.38;4.25;;;0.70;96.00;;;;;;2063364;28;20014;-90
2022/04/01 01:38:49;;;;;;;6.55;4.65;;;0.70;96.00;;;;;;2064967;28;20562;-89
2022/04/01 01:39:51;;;;;;;6.72;4.53;;;0.70;96.10;;;;;;2070292;28;20120;-90
2022/04/01 01:40:53;;;;;;;5.85;4.18;;;0.70;96.10;;;;;;2081498;28;20041;-90
2022/04/01 01:41:56;;;;;;;6.68;4.75;;;0.70;96.10;;;;;;2063422;28;20049;-89
2022/04/01 01:42:56;;;;;;;6.03;4.38;;;0.70;96.10;;;;;;2049381;28;20035;-88
2022/04/01 01:43:57;;;;;;;6.43;4.43;;;0.70;96.10;;;;;;2041867;29;20117;-89
2022/04/01 01:44:58;;;;;;;7.28;4.30;;;0.70;96.10;;;;;;2057579;28;20485;-89
2022/04/01 01:45:59;;;;;;;6.43;4.22;;;0.70;96.10;;;;;;2069525;28;20062;-89
2022/04/01 01:46:59;;;;;;;6.03;4.28;;;0.70;96.10;;;;;;2064237;28;20037;-90
2022/04/01 01:48:01;;;;;;;6.00;4.20;;;0.70;96.10;;;;;;2072779;28;20030;-90
2022/04/01 01:49:01;;;;;;;7.18;4.30;;;0.70;96.10;;;;;;2072301;28;20026;-90
2022/04/01 01:55:18;;;;;;;6.20;4.10;;;0.60;96.10;;;;;;2072781;28;20045;-89
2022/04/01 01:56:19;;;;;;;5.97;3.92;;;0.70;96.10;;;;;;2072177;28;20033;-89
2022/04/01 01:57:22;;;;;;;5.57;3.80;;;0.60;96.10;;;;;;2072229;28;20164;-90
2022/04/01 01:58:23;;;;;;;5.65;4.13;;;0.60;96.10;;;;;;2065529;28;20050;-90
2022/04/01 01:59:23;;;;;;;5.72;3.63;;;0.60;96.10;;;;;;2072448;28;20041;-90
2022/04/01 02:00:25;;;;;;;5.88;3.92;;;0.60;96.10;;;;;;2066025;28;20149;-90
2022/04/01 02:01:25;;;;;;;4.53;3.40;;;0.60;96.10;;;;;;2068890;28;20034;-90
2022/04/01 02:02:26;;;;;;;5.30;3.60;;;0.60;96.20;;;;;;2067062;28;20472;-90
2022/04/01 02:03:27;;;;;;;5.15;3.80;;;0.60;96.20;;;;;;2072656;28;20026;-89
2022/04/01 02:04:27;;;;;;;4.95;3.60;;;0.60;96.20;;;;;;2074272;28;20030;-90
2022/04/01 02:05:28;;;;;;;6.68;4.10;;;0.60;96.20;;;;;;2074288;28;20026;-89
2022/04/01 02:06:29;;;;;;;5.90;4.03;;;0.60;96.20;;;;;;2065474;28;20121;-89
2022/04/01 02:07:30;;;;;;;5.65;3.75;;;0.60;96.20;;;;;;2060623;28;20034;-90
2022/04/01 02:08:31;;;;;;;5.03;3.42;;;0.60;96.20;;;;;;2065046;28;20029;-90
2022/04/01 02:09:32;;;;;;;4.65;3.08;;;0.60;96.50;;;;;;2052665;28;20031;-90
2022/04/01 02:10:33;;;;;;;5.13;3.50;;;0.60;96.20;;;;;;2064102;28;20018;-90
2022/04/01 02:11:37;;;;;;;5.50;3.75;;;0.60;96.20;;;;;;2065926;28;20034;-90
2022/04/01 02:12:38;;;;;;;4.88;3.45;;;0.60;96.20;;;;;;2061367;28;20090;-90
2022/04/01 02:13:39;;;;;;;5.55;3.72;;;0.60;96.30;;;;;;2057735;28;20054;-90
2022/04/01 02:14:39;;;;;;;5.65;3.70;;;0.60;96.30;;;;;;2064660;28;20037;-90
2022/04/01 02:15:40;;;;;;;6.43;3.90;;;0.60;96.30;;;;;;2055220;28;20034;-90
2022/04/01 02:16:43;;;;;;;5.15;3.65;;;0.60;96.30;;;;;;2057435;28;20042;-91
2022/04/01 02:17:44;;;;;;;5.60;3.90;;;0.60;96.30;;;;;;2053042;28;20023;-90
2022/04/01 02:18:45;;;;;;;6.50;3.70;;;0.60;96.30;;;;;;2056096;28;20381;-90
2022/04/01 02:19:45;;;;;;;6.28;4.18;;;0.60;96.30;;;;;;2057138;28;20468;-90
2022/04/01 02:20:47;;;;;;;5.75;3.60;;;0.60;96.30;;;;;;2060693;28;20081;-90
2022/04/01 02:21:49;;;;;;;5.57;3.80;;;0.60;96.30;;;;;;2072865;28;20131;-91
2022/04/01 02:22:53;;;;;;;5.25;3.58;;;0.60;96.30;;;;;;2073334;28;20444;-90
2022/04/01 02:23:53;;;;;;;5.18;3.55;;;0.60;96.30;;;;;;2072178;28;20029;-89
2022/04/01 02:24:54;;;;;;;5.60;3.78;;;0.60;96.30;;;;;;2065072;28;20141;-91
2022/04/01 02:25:55;;;;;;;6.10;4.00;;;0.50;96.30;;;;;;2065903;28;20038;-90
2022/04/01 02:26:55;;;;;;;5.72;3.88;;;0.60;96.40;;;;;;2057233;28;20038;-92
2022/04/01 02:27:57;;;;;;;5.35;3.60;;;0.60;96.30;;;;;;2053641;28;20055;-90
2022/04/01 02:28:59;;;;;;;5.10;3.60;;;0.60;96.30;;;;;;2056295;28;20030;-90
2022/04/01 02:30:01;;;;;;;5.13;3.42;;;0.60;96.40;;;;;;2065696;28;20037;-92
2022/04/01 02:31:03;;;;;;;5.82;3.70;;;0.60;96.40;;;;;;2070564;28;20117;-92
2022/04/01 02:32:05;;;;;;;5.43;3.65;;;0.60;96.40;;;;;;2070368;28;20040;-91
2022/04/01 02:33:08;;;;;;;4.85;3.45;;;0.60;96.40;;;;;;2057024;28;20035;-91
2022/04/01 02:34:09;;;;;;;4.93;3.50;;;0.60;96.40;;;;;;2050024;28;20031;-92
2022/04/01 02:35:10;;;;;;;5.13;3.75;;;0.60;96.40;;;;;;2067756;28;20069;-92
2022/04/01 02:36:11;;;;;;;5.05;3.45;;;0.50;96.30;;;;;;2072968;28;20022;-92
2022/04/01 02:37:12;;;;;;;5.30;3.38;;;0.60;96.40;;;;;;2071726;28;20032;-92
2022/04/01 02:38:13;;;;;;;5.13;3.72;;;0.60;96.40;;;;;;2063015;28;20031;-92
2022/04/01 02:39:13;;;;;;;5.38;3.90;;;0.60;96.40;;;;;;2072835;28;20404;-91
2022/04/01 02:40:15;;;;;;;5.80;3.72;;;0.60;96.40;;;;;;2079516;28;20034;-94
2022/04/01 02:41:16;;;;;;;6.28;4.43;;;0.50;96.40;;;;;;2074754;28;20022;-92
2022/04/01 02:42:17;;;;;;;5.97;3.95;;;0.50;96.40;;;;;;2072609;28;20104;-92
2022/04/01 02:43:17;;;;;;;6.13;4.10;;;0.60;96.40;;;;;;2059406;28;20038;-92
2022/04/01 02:44:18;;;;;;;5.63;4.25;;;0.50;96.30;;;;;;2060153;28;20061;-92
2022/04/01 02:45:19;;;;;;;6.20;3.70;;;0.60;96.40;;;;;;2054197;28;20505;-91
2022/04/01 02:46:19;;;;;;;5.93;3.90;;;0.50;96.40;;;;;;2071204;28;20040;-92
2022/04/01 02:47:20;;;;;;;6.18;4.45;;;0.60;96.40;;;;;;2070460;28;20037;-91
2022/04/01 02:48:21;;;;;;;5.82;4.20;;;0.50;96.40;;;;;;2080049;28;20030;-94
2022/04/01 02:49:21;;;;;;;5.53;3.72;;;0.60;96.40;;;;;;2078716;28;20030;-92
2022/04/01 02:50:22;;;;;;;6.65;4.50;;;0.50;96.40;;;;;;2080671;28;20044;-93
2022/04/01 02:51:23;;;;;;;7.65;4.40;;;0.60;96.40;;;;;;2075383;28;20030;-92
2022/04/01 02:52:24;;;;;;;6.45;4.15;;;0.60;96.40;;;;;;2073267;28;20058;-92
2022/04/01 02:53:25;;;;;;;5.18;3.70;;;0.50;96.40;;;;;;2074283;28;20657;-93
2022/04/01 02:54:26;;;;;;;6.03;4.25;;;0.50;96.40;;;;;;2063500;28;20055;-92
2022/04/01 02:55:27;;;;;;;7.18;4.10;;;0.50;96.40;;;;;;2050626;28;20034;-92
2022/04/01 02:56:27;;;;;;;6.15;3.75;;;0.50;96.40;;;;;;2065152;28;20066;-93
2022/04/01 02:57:28;;;;;;;6.00;3.63;;;0.50;96.40;;;;;;2066026;28;20035;-92
2022/04/01 02:58:28;;;;;;;5.78;4.30;;;0.50;96.40;;;;;;2058524;28;20121;-92
2022/04/01 02:59:29;;;;;;;5.97;4.25;;;0.50;96.40;;;;;;2057888;28;20157;-92
2022/04/01 03:00:30;;;;;;;5.68;4.10;;;0.50;96.40;;;;;;2055919;28;20030;-93
2022/04/01 03:01:31;;;;;;;7.38;4.53;;;0.50;96.40;;;;;;2065838;28;20030;-91
2022/04/01 03:02:31;;;;;;;6.95;4.68;;;0.60;96.50;;;;;;2063658;28;20469;-92
2022/04/01 03:03:32;;;;;;;8.07;4.30;;;0.50;96.40;;;;;;2066751;28;20034;-93
2022/04/01 03:04:33;;;;;;;6.82;4.30;;;0.60;96.40;;;;;;2056843;28;20461;-92
2022/04/01 03:05:38;;;;;;;7.72;4.43;;;0.60;96.40;;;;;;2064415;28;20187;-90
2022/04/01 03:06:39;;;;;;;6.45;4.35;;;0.60;96.50;;;;;;2073319;28;20042;-91
2022/04/01 03:07:40;;;;;;;7.28;4.68;;;0.50;96.40;;;;;;2080953;28;20022;-90
2022/04/01 03:08:41;;;;;;;5.65;4.25;;;0.60;96.70;;;;;;2075148;28;20026;-92
2022/04/01 03:09:42;;;;;;;6.55;4.57;;;0.50;96.40;;;;;;2075123;28;20018;-91
2022/04/01 03:10:43;;;;;;;6.63;4.60;;;0.60;96.50;;;;;;2072840;28;20034;-94
2022/04/01 03:11:44;;;;;;;8.23;5.55;;;0.50;96.50;;;;;;2066938;28;20050;-92
2022/04/01 03:12:45;;;;;;;6.85;4.78;;;0.50;96.50;;;;;;2057549;28;20026;-92
2022/04/01 03:13:46;;;;;;;7.07;5.13;;;0.50;96.50;;;;;;2049974;28;20027;-92
2022/04/01 03:14:46;;;;;;;6.50;4.78;;;0.50;96.50;;;;;;2057624;28;20133;-91
2022/04/01 03:15:47;;;;;;;7.70;4.68;;;0.50;96.60;;;;;;2076259;28;20077;-91
2022/04/01 03:16:48;;;;;;;6.07;4.35;;;0.50;96.60;;;;;;2050251;28;20502;-92
2022/04/01 03:17:49;;;;;;;7.03;5.13;;;0.50;96.60;;;;;;2049430;29;20031;-91
2022/04/01 03:18:50;;;;;;;6.30;4.35;;;0.50;96.60;;;;;;2064449;28;20037;-90
2022/04/01 03:19:51;;;;;;;7.53;4.60;;;0.50;96.60;;;;;;2083288;28;20045;-89
2022/04/01 03:20:52;;;;;;;6.75;4.25;;;0.50;96.60;;;;;;2082833;28;20025;-90
2022/04/01 03:21:53;;;;;;;6.15;4.20;;;0.50;96.60;;;;;;2068804;28;20133;-92
2022/04/01 03:22:55;;;;;;;7.53;4.53;;;0.50;96.60;;;;;;2064093;28;20030;-90
2022/04/01 03:23:56;;;;;;;6.30;4.50;;;0.50;96.60;;;;;;2065082;28;20041;-91
2022/04/01 03:24:57;;;;;;;6.05;4.00;;;0.50;96.60;;;;;;2066111;28;20030;-92
2022/04/01 03:25:58;;;;;;;6.22;4.38;;;0.50;96.50;;;;;;2070564;28;20393;-91
2022/04/01 03:26:58;;;;;;;6.50;4.93;;;0.50;96.60;;;;;;2064865;28;20081;-92
2022/04/01 03:28:01;;;;;;;8.68;4.97;;;0.50;96.50;;;;;;2045807;29;20074;-90
2022/04/01 03:29:02;;;;;;;5.70;4.35;;;0.50;96.50;;;;;;2055306;28;20042;-90
2022/04/01 03:30:03;;;;;;;6.72;4.15;;;0.50;96.50;;;;;;2065087;28;20038;-91
2022/04/01 03:31:06;;;;;;;5.95;3.70;;;0.50;96.60;;;;;;2056634;28;20061;-91
2022/04/01 03:32:07;;;;;;;5.95;4.22;;;0.50;96.50;;;;;;2048860;28;20031;-92
2022/04/01 03:33:08;;;;;;;7.93;4.80;;;0.50;96.50;;;;;;2057140;28;20034;-92
2022/04/01 03:34:09;;;;;;;8.48;5.72;;;0.50;96.50;;;;;;2063935;28;20054;-90
2022/04/01 03:35:14;;;;;;;6.80;4.90;;;0.50;96.50;;;;;;2065310;28;20049;-90
2022/04/01 03:36:17;;;;;;;6.40;4.60;;;0.50;96.50;;;;;;2071997;28;20026;-90
2022/04/01 03:37:17;;;;;;;6.88;5.00;;;0.50;96.50;;;;;;2073232;28;20037;-92
2022/04/01 03:38:18;;;;;;;6.78;4.70;;;0.50;96.50;;;;;;2060757;28;20411;-91
2022/04/01 03:39:19;;;;;;;6.55;4.65;;;0.50;96.50;;;;;;2064906;28;20053;-91
2022/04/01 03:40:20;;;;;;;6.63;4.88;;;0.50;96.50;;;;;;2049337;28;20035;-90
2022/04/01 03:41:21;;;;;;;7.40;5.13;;;0.50;96.50;;;;;;2057195;28;20035;-90
2022/04/01 03:42:22;;;;;;;6.82;4.82;;;0.50;96.50;;;;;;2059682;28;20085;-91
2022/04/01 03:43:24;;;;;;;6.80;4.72;;;0.50;96.50;;;;;;2065095;28;20655;-91
2022/04/01 03:44:26;;;;;;;6.72;4.93;;;0.50;96.50;;;;;;2071597;28;20025;-91
2022/04/01 03:45:27;;;;;;;6.03;4.70;;;0.50;96.50;;;;;;2073121;28;20029;-90
2022/04/01 03:46:45;;;;;;;6.60;4.55;;;0.50;96.50;;;;;;2063476;28;20125;-93
2022/04/01 03:47:45;;;;;;;7.60;5.00;;;0.50;96.50;;;;;;2059494;28;20069;-91
2022/04/01 03:48:55;;;;;;;7.03;4.90;;;0.50;96.50;;;;;;2067792;28;20057;-92
2022/04/01 03:50:00;;;;;;;6.88;4.88;;;0.50;96.50;;;;;;2065578;28;20426;-91
2022/04/01 03:51:01;;;;;;;7.47;4.95;;;0.50;96.50;;;;;;2063806;28;20037;-90
2022/04/01 03:52:02;;;;;;;8.35;5.30;;;0.50;96.50;;;;;;2057038;28;20393;-89
2022/04/01 03:53:06;;;;;;;7.28;5.10;;;0.40;96.50;;;;;;2046844;28;20036;-91
2022/04/01 03:54:07;;;;;;;6.43;4.95;;;0.50;96.50;;;;;;2049032;28;20034;-91
2022/04/01 03:55:09;;;;;;;6.88;4.82;;;0.40;96.50;;;;;;2064632;28;20033;-89
2022/04/01 03:56:11;;;;;;;7.43;4.75;;;0.50;96.50;;;;;;2071833;28;20030;-89
2022/04/01 03:57:15;;;;;;;7.72;5.10;;;0.50;96.50;;;;;;2072115;28;20141;-91
2022/04/01 03:58:18;;;;;;;7.50;5.03;;;0.40;96.50;;;;;;2065060;28;20370;-89
2022/04/01 03:59:20;;;;;;;7.22;4.82;;;0.40;96.50;;;;;;2068540;28;20512;-91
2022/04/01 04:00:20;;;;;;;7.18;4.75;;;0.40;96.50;;;;;;2063695;28;20575;-90
2022/04/01 04:01:21;;;;;;;7.30;4.90;;;0.50;96.50;;;;;;2052631;28;20034;-90
2022/04/01 04:02:22;;;;;;;6.40;4.88;;;0.40;96.50;;;;;;2049565;28;20032;-90
2022/04/01 04:03:23;;;;;;;7.00;4.45;;;0.50;96.50;;;;;;2071603;28;20082;-90
2022/04/01 04:04:24;;;;;;;7.38;4.80;;;0.50;96.50;;;;;;2071239;28;20209;-90
2022/04/01 04:05:27;;;;;;;7.53;4.28;;;0.40;96.50;;;;;;2064827;28;20432;-90
2022/04/01 04:06:28;;;;;;;6.13;4.57;;;0.40;96.50;;;;;;2069272;28;20056;-90
2022/04/01 04:07:31;;;;;;;6.63;4.88;;;0.40;96.50;;;;;;2073383;28;20026;-90
2022/04/01 04:08:32;;;;;;;6.07;4.47;;;0.50;96.50;;;;;;2072342;28;20157;-91
2022/04/01 04:09:42;;;;;;;7.45;4.05;;;0.40;96.50;;;;;;2070807;28;20157;-90
2022/04/01 04:10:49;;;;;;;6.47;3.95;;;0.50;96.50;;;;;;2064863;28;20455;-91
2022/04/01 04:11:50;;;;;;;7.82;4.55;;;0.40;96.50;;;;;;2064715;28;20032;-89
2022/04/01 04:12:51;;;;;;;6.15;4.43;;;0.50;96.50;;;;;;2056798;28;20019;-89
2022/04/01 04:13:53;;;;;;;6.63;4.28;;;0.40;96.50;;;;;;2063715;28;20034;-90
2022/04/01 04:14:54;;;;;;;7.57;5.13;;;0.50;96.50;;;;;;2057734;28;20037;-89
2022/04/01 04:16:18;;;;;;;7.07;4.15;;;0.40;96.50;;;;;;2057680;28;20086;-89
2022/04/01 04:17:44;;;;;;;5.90;3.97;;;0.40;96.50;;;;;;2061950;28;20515;-89
2022/04/01 04:18:51;;;;;;;6.38;3.80;;;0.40;96.40;;;;;;2068209;28;20051;-90
2022/04/01 04:20:08;;;;;;;6.65;4.03;;;0.40;96.40;;;;;;2070454;28;20031;-91
2022/04/01 04:21:10;;;;;;;5.63;3.60;;;0.40;96.40;;;;;;2071387;28;20030;-90
2022/04/01 04:22:20;;;;;;;6.25;3.92;;;0.40;96.40;;;;;;2073077;28;20091;-90
2022/04/01 04:23:24;;;;;;;6.22;4.07;;;0.50;96.40;;;;;;2073359;28;20057;-90
2022/04/01 04:24:38;;;;;;;5.05;3.35;;;0.40;96.40;;;;;;2062162;28;20019;-91
2022/04/01 04:25:39;;;;;;;5.30;3.85;;;0.40;96.40;;;;;;2072699;28;20021;-89
2022/04/01 04:26:48;;;;;;;5.18;3.83;;;0.40;96.40;;;;;;2074560;28;20403;-90
2022/04/01 04:27:57;;;;;;;5.70;3.60;;;0.40;96.40;;;;;;2074960;28;20385;-89
2022/04/01 04:29:12;;;;;;;6.78;4.50;;;0.40;96.40;;;;;;2073172;28;21406;-90
2022/04/01 04:30:13;;;;;;;7.18;4.20;;;0.40;96.40;;;;;;2074234;28;20496;-90
2022/04/01 04:31:14;;;;;;;5.90;4.10;;;0.40;96.40;;;;;;2066330;28;20086;-89
2022/04/01 04:32:33;;;;;;;5.97;4.35;;;0.40;96.40;;;;;;2064495;28;20034;-90
2022/04/01 04:33:37;;;;;;;6.25;3.53;;;0.40;96.40;;;;;;2066588;28;20034;-89
2022/04/01 04:34:45;;;;;;;6.80;3.50;;;0.40;96.40;;;;;;2068182;28;20117;-89
2022/04/01 04:35:49;;;;;;;6.20;3.70;;;0.40;96.40;;;;;;2069906;28;20109;-91
2022/04/01 04:36:52;;;;;;;6.03;3.90;;;0.40;96.40;;;;;;2071370;28;20030;-89
2022/04/01 04:37:56;;;;;;;6.28;4.18;;;0.40;96.30;;;;;;2065941;28;20136;-89
2022/04/01 04:39:02;;;;;;;6.13;3.80;;;0.40;96.30;;;;;;2073667;28;20068;-89
2022/04/01 04:40:04;;;;;;;6.68;4.03;;;0.40;96.30;;;;;;2070906;28;20042;-89
2022/04/01 04:41:09;;;;;;;7.05;4.10;;;0.40;96.30;;;;;;2051804;28;20031;-90
2022/04/01 04:42:11;;;;;;;6.63;3.60;;;0.40;96.30;;;;;;2051695;28;20409;-90
2022/04/01 04:43:18;;;;;;;5.40;3.72;;;0.40;96.30;;;;;;2062182;28;20078;-91
2022/04/01 04:44:24;;;;;;;6.07;3.95;;;0.40;96.30;;;;;;2072605;28;20380;-91
2022/04/01 04:45:26;;;;;;;6.63;3.50;;;0.40;96.30;;;;;;2068822;28;20029;-89
2022/04/01 04:46:27;;;;;;;5.40;3.70;;;0.40;96.30;;;;;;2066279;28;20121;-89
2022/04/01 04:47:32;;;;;;;7.18;3.85;;;0.40;96.30;;;;;;2066583;28;20034;-90
2022/04/01 04:48:34;;;;;;;6.00;3.90;;;0.40;96.30;;;;;;2065036;28;20053;-89
2022/04/01 04:49:36;;;;;;;4.82;3.40;;;0.40;96.30;;;;;;2073031;28;20028;-89
2022/04/01 04:50:37;;;;;;;5.32;3.60;;;0.40;96.30;;;;;;2074386;28;20018;-90
2022/04/01 04:51:39;;;;;;;5.78;3.83;;;0.40;96.30;;;;;;2076623;28;20030;-90
2022/04/01 04:52:42;;;;;;;6.38;3.63;;;0.40;96.30;;;;;;2063804;28;20041;-91
2022/04/01 04:53:44;;;;;;;7.05;3.75;;;0.40;96.30;;;;;;2068719;28;20156;-88
2022/04/01 04:54:45;;;;;;;5.47;3.67;;;0.40;96.30;;;;;;2074267;28;20034;-90
2022/04/01 04:55:48;;;;;;;5.90;3.75;;;0.40;96.30;;;;;;2063017;28;20030;-89
2022/04/01 04:56:49;;;;;;;6.00;3.58;;;0.40;96.30;;;;;;2064968;28;20042;-89
2022/04/01 04:57:52;;;;;;;5.38;3.40;;;0.40;96.30;;;;;;2072481;28;20033;-89
2022/04/01 04:58:54;;;;;;;5.65;3.72;;;0.40;96.30;;;;;;2079498;28;20057;-90
2022/04/01 04:59:58;;;;;;;4.75;3.08;;;0.40;96.30;;;;;;2060755;28;20425;-90
2022/04/01 05:01:03;;;;;;;7.03;3.40;;;0.40;96.30;;;;;;2060977;28;20019;-91
2022/04/01 05:02:12;;;;;;;5.60;3.42;;;0.40;96.30;;;;;;2066237;28;20046;-90
2022/04/01 05:03:34;;;;;;;6.28;3.50;;;0.40;96.30;;;;;;2073994;28;20180;-91
2022/04/01 05:04:59;;;;;;;6.45;3.63;;;0.40;96.20;;;;;;2076199;28;20033;-86
2022/04/01 05:06:03;;;;;;;6.13;3.42;;;0.40;96.20;;;;;;2065985;28;20108;-88
2022/04/01 05:07:22;;;;;;;6.78;3.35;;;0.40;96.20;;;;;;2069497;28;22121;-88
2022/04/01 05:08:40;;;;;;;6.22;3.50;;;0.40;96.20;;;;;;2071082;28;20035;-88
2022/04/01 05:09:48;;;;;;;7.22;3.67;;;0.30;96.20;;;;;;2075705;28;20029;-88
2022/04/01 05:10:53;;;;;;;6.50;3.78;;;0.40;96.20;;;;;;2073319;28;20038;-89
2022/04/01 05:12:06;;;;;;;5.05;3.28;;;0.30;96.10;;;;;;2072878;28;20053;-88
2022/04/01 05:13:25;;;;;;;5.13;3.30;;;0.40;96.10;;;;;;2074675;28;20068;-88
2022/04/01 05:14:52;;;;;;;4.93;3.13;;;0.30;96.10;;;;;;2074662;28;20125;-89
2022/04/01 05:15:56;;;;;;;6.55;3.60;;;0.30;96.10;;;;;;2074548;28;20034;-88
2022/04/01 05:17:04;;;;;;;4.97;3.20;;;0.30;96.10;;;;;;2063803;28;20039;-88
2022/04/01 05:18:21;;;;;;;5.65;3.22;;;0.30;96.10;;;;;;2058059;28;20094;-90
2022/04/01 05:19:27;;;;;;;5.68;3.40;;;0.30;96.10;;;;;;2069943;28;20026;-88
2022/04/01 05:20:28;;;;;;;5.45;3.33;;;0.40;96.10;;;;;;2065883;28;20035;-88
2022/04/01 05:21:55;;;;;;;5.22;3.13;;;0.40;96.10;;;;;;2053952;28;20016;-89
2022/04/01 05:23:14;;;;;;;4.70;3.00;;;0.30;96.10;;;;;;2064729;28;20045;-88
2022/04/01 05:24:19;;;;;;;7.20;3.25;;;0.30;96.10;;;;;;2068519;28;20019;-82
2022/04/01 05:25:21;;;;;;;5.57;3.08;;;0.30;96.00;;;;;;2075297;28;20025;-87
2022/04/01 05:26:38;;;;;;;5.38;3.28;;;0.30;96.00;;;;;;2066152;28;20031;-89
2022/04/01 05:27:45;;;;;;;4.97;3.00;;;0.30;96.00;;;;;;2074190;28;20571;-89
2022/04/01 05:28:52;;;;;;;5.38;3.17;;;0.30;96.00;;;;;;2071175;28;20462;-90
2022/04/01 05:30:16;;;;;;;5.22;3.05;;;0.30;96.00;;;;;;2064793;28;20038;-89
2022/04/01 05:31:34;;;;;;;5.22;3.17;;;0.40;96.10;;;;;;2064783;28;20205;-89
2022/04/01 05:32:59;;;;;;;5.25;2.90;;;0.40;96.10;;;;;;2059534;28;20034;-89
2022/04/01 05:34:19;;;;;;;5.72;3.20;;;0.40;96.00;;;;;;2068671;28;22477;-89
2022/04/01 05:35:20;;;;;;;4.78;2.80;;;0.40;96.00;;;;;;2071016;28;20100;-88
2022/04/01 05:36:23;;;;;;;5.65;2.97;;;0.40;96.00;;;;;;2065104;28;20042;-88
2022/04/01 05:37:28;;;;;;;4.93;2.90;;;0.40;96.00;;;;;;2058019;28;20579;-88
2022/04/01 05:38:32;;;;;;;4.72;2.85;;;0.40;96.00;;;;;;2061873;28;20504;-88